Time;durP1;ratioP1;P1;durP2;ratioP2;P2;SDS_P1;SDS_P2;PMS_P1;PMS_P2;Temp;Humidity;BMP_temperature;BMP_pressure;BME280_temperature;BME280_humidity;BME280_pressure;Samples;Min_cycle;Max_cycle;Signal;HPM_P1;HPM_P2
2021/03/10 00:01:50;;;;;;;39.80;19.10;;;;;;;3.08;71.85;96890.97;4955065;28;20042;-63
2021/03/10 00:04:16;;;;;;;36.78;18.70;;;;;;;3.03;71.76;96900.06;4977153;28;20190;-63
2021/03/10 00:06:41;;;;;;;39.33;18.35;;;;;;;3.06;71.70;96896.69;4957886;28;20061;-63
2021/03/10 00:09:07;;;;;;;33.92;17.38;;;;;;;3.17;70.98;96903.44;4958275;28;20109;-63
2021/03/10 00:11:32;;;;;;;35.00;17.00;;;;;;;3.35;69.95;96900.78;4945634;28;20083;-63
2021/03/10 00:13:58;;;;;;;31.10;16.35;;;;;;;3.37;69.66;96904.78;4945681;28;20097;-63
2021/03/10 00:16:23;;;;;;;33.63;18.05;;;;;;;2.97;72.62;96906.69;4958243;28;20046;-62
2021/03/10 00:18:49;;;;;;;38.08;18.58;;;;;;;2.56;73.97;96913.97;4962245;28;20038;-62
2021/03/10 00:21:14;;;;;;;42.17;20.48;;;;;;;2.40;74.28;96912.78;4955861;28;20051;-62
2021/03/10 00:23:39;;;;;;;41.28;20.73;;;;;;;2.46;74.94;96909.63;4961457;28;20085;-62
2021/03/10 00:26:05;;;;;;;39.75;18.98;;;;;;;2.56;74.26;96905.09;4958910;28;20130;-61
2021/03/10 00:28:30;;;;;;;40.58;19.40;;;;;;;2.55;73.30;96914.28;4967159;28;20071;-63
2021/03/10 00:30:56;;;;;;;38.35;18.42;;;;;;;2.52;73.99;96917.59;4966697;28;20503;-61
2021/03/10 00:33:21;;;;;;;42.25;19.98;;;;;;;2.48;73.37;96914.72;4964736;28;20037;-60
2021/03/10 00:35:46;;;;;;;38.30;19.38;;;;;;;2.45;74.72;96908.03;4955230;28;20487;-62
2021/03/10 00:38:12;;;;;;;39.50;19.00;;;;;;;2.45;73.86;96916.16;4964133;28;20101;-61
2021/03/10 00:40:37;;;;;;;40.90;19.05;;;;;;;2.46;73.84;96925.03;4961469;28;20133;-62
2021/03/10 00:43:03;;;;;;;42.38;18.83;;;;;;;2.41;74.48;96920.59;4959392;28;20101;-62
2021/03/10 00:45:28;;;;;;;38.50;19.55;;;;;;;2.65;73.81;96922.94;4960344;28;20053;-62
2021/03/10 00:47:57;;;;;;;40.08;19.70;;;;;;;2.79;73.32;96922.03;4961673;28;20070;-64
2021/03/10 00:50:22;;;;;;;42.65;21.20;;;;;;;2.83;73.46;96920.34;4951404;28;20213;-64
2021/03/10 00:52:48;;;;;;;43.78;21.08;;;;;;;2.63;74.84;96933.28;4961236;28;20039;-63
2021/03/10 00:55:14;;;;;;;37.47;19.67;;;;;;;2.57;75.16;96931.78;4953211;28;20089;-63
2021/03/10 00:57:39;;;;;;;37.95;20.27;;;;;;;2.66;74.51;96916.41;4960978;28;20093;-64
2021/03/10 01:00:06;;;;;;;39.47;20.70;;;;;;;2.92;74.12;96915.75;4956665;28;20035;-61
2021/03/10 01:02:32;;;;;;;41.13;20.20;;;;;;;2.89;73.22;96900.16;4961471;28;20507;-63
2021/03/10 01:04:57;;;;;;;42.35;20.10;;;;;;;2.91;74.12;96910.66;4962174;28;20114;-64
2021/03/10 01:07:23;;;;;;;40.85;20.48;;;;;;;2.83;73.67;96915.72;4955692;28;20617;-61
2021/03/10 01:09:48;;;;;;;37.55;20.02;;;;;;;2.76;74.62;96903.75;4962018;28;20390;-62
2021/03/10 01:12:13;;;;;;;36.72;18.73;;;;;;;2.85;74.71;96907.31;4954065;28;20051;-62
2021/03/10 01:14:39;;;;;;;38.45;20.73;;;;;;;2.83;74.43;96914.94;4960495;28;20107;-62
2021/03/10 01:17:04;;;;;;;38.70;18.60;;;;;;;2.79;74.61;96916.63;4958205;28;20102;-63
2021/03/10 01:19:30;;;;;;;42.65;20.30;;;;;;;2.70;74.88;96910.38;4961970;28;20130;-63
2021/03/10 01:21:55;;;;;;;39.33;20.23;;;;;;;2.45;75.65;96912.66;4965584;28;20038;-64
2021/03/10 01:24:21;;;;;;;45.83;20.42;;;;;;;2.33;76.26;96918.59;4957919;28;20035;-63
2021/03/10 01:26:46;;;;;;;39.70;20.95;;;;;;;2.21;76.77;96916.44;4962781;28;20050;-64
2021/03/10 01:29:12;;;;;;;43.22;20.75;;;;;;;2.06;77.20;96911.41;4956534;28;20046;-63
2021/03/10 01:31:38;;;;;;;40.00;19.90;;;;;;;1.92;77.36;96917.66;4959829;28;20078;-64
2021/03/10 01:34:03;;;;;;;43.22;20.13;;;;;;;1.80;77.92;96912.00;4958494;28;20057;-63
2021/03/10 01:36:29;;;;;;;38.50;20.98;;;;;;;1.77;78.13;96914.50;4942639;28;20047;-64
2021/03/10 01:38:54;;;;;;;43.22;20.27;;;;;;;1.79;78.65;96910.41;4961419;28;20130;-62
2021/03/10 01:41:19;;;;;;;39.58;20.20;;;;;;;1.80;78.88;96903.91;4956075;28;20125;-64
2021/03/10 01:43:45;;;;;;;39.63;20.30;;;;;;;1.85;78.84;96916.47;4961315;28;20043;-62
2021/03/10 01:46:10;;;;;;;41.97;19.58;;;;;;;1.95;78.52;96912.75;4956285;28;20128;-64
2021/03/10 01:48:36;;;;;;;37.28;18.73;;;;;;;2.02;77.90;96913.13;4961344;28;20392;-63
2021/03/10 01:51:04;;;;;;;35.75;19.30;;;;;;;2.11;77.34;96905.91;4942421;28;20502;-62
2021/03/10 01:53:30;;;;;;;42.08;18.25;;;;;;;2.27;76.80;96912.53;4960523;28;20121;-63
2021/03/10 01:55:56;;;;;;;38.35;18.45;;;;;;;2.33;76.41;96917.81;4958924;28;20058;-63
2021/03/10 01:58:21;;;;;;;34.42;17.55;;;;;;;2.24;75.76;96910.44;4956710;28;20497;-62
2021/03/10 02:00:47;;;;;;;43.00;20.63;;;;;;;2.28;76.66;96916.81;4960990;28;20554;-63
2021/03/10 02:03:12;;;;;;;36.83;18.65;;;;;;;2.31;76.71;96914.63;4953317;28;20106;-62
2021/03/10 02:05:38;;;;;;;39.38;19.42;;;;;;;2.28;76.46;96905.22;4948791;28;20514;-63
2021/03/10 02:08:09;;;;;;;34.35;18.35;;;;;;;2.08;77.39;96914.59;4922723;28;20042;-62
2021/03/10 02:11:12;;;;;;;39.22;18.88;;;;;;;2.06;77.30;96914.13;4961617;28;20381;-62
2021/03/10 02:14:15;;;;;;;38.90;19.27;;;;;;;2.15;77.78;96911.47;4958356;28;20038;-62
2021/03/10 02:16:55;;;;;;;41.95;19.35;;;;;;;2.26;77.43;96905.50;4959119;28;20039;-62
2021/03/10 02:19:44;;;;;;;35.22;18.13;;;;;;;2.22;77.61;96901.84;4951160;28;20035;-61
2021/03/10 02:22:12;;;;;;;39.00;18.27;;;;;;;2.00;77.36;96899.13;4955826;28;20046;-61
2021/03/10 02:25:10;;;;;;;34.42;18.23;;;;;;;1.46;81.03;96907.88;4960949;28;20475;-62
2021/03/10 02:27:51;;;;;;;48.17;22.02;;;;;;;1.07;82.78;96903.78;4960331;28;20138;-61
2021/03/10 02:30:40;;;;;;;44.03;20.00;;;;;;;1.06;82.50;96904.91;4971998;28;20039;-64
2021/03/10 02:33:10;;;;;;;44.10;21.63;;;;;;;1.08;82.93;96909.97;4964416;28;20117;-66
2021/03/10 02:35:41;;;;;;;48.97;21.60;;;;;;;1.20;83.09;96899.47;4961663;28;20053;-64
2021/03/10 02:38:09;;;;;;;47.38;21.60;;;;;;;1.46;81.88;96899.78;4954411;28;20303;-63
2021/03/10 02:40:39;;;;;;;43.15;20.52;;;;;;;1.61;81.00;96905.94;4961502;28;20049;-64
2021/03/10 02:43:06;;;;;;;44.67;21.23;;;;;;;1.66;80.44;96914.72;4947072;28;20035;-62
2021/03/10 02:45:32;;;;;;;38.75;20.45;;;;;;;1.75;80.46;96901.31;4960180;28;20050;-61
2021/03/10 02:47:58;;;;;;;41.53;20.20;;;;;;;1.95;79.60;96900.03;4959239;28;20412;-62
2021/03/10 02:50:24;;;;;;;41.92;20.60;;;;;;;2.22;77.87;96896.44;4955548;28;20899;-62
2021/03/10 02:52:50;;;;;;;37.47;19.00;;;;;;;2.43;77.40;96893.22;4959862;28;20043;-62
2021/03/10 02:55:16;;;;;;;40.47;19.63;;;;;;;2.46;77.27;96889.91;4952813;28;20102;-62
2021/03/10 02:57:43;;;;;;;36.58;18.75;;;;;;;2.49;76.71;96894.69;4958765;28;20078;-62
2021/03/10 03:00:22;;;;;;;38.10;20.05;;;;;;;2.36;76.96;96898.25;4954591;28;20046;-63
2021/03/10 03:02:47;;;;;;;39.05;20.05;;;;;;;2.34;77.74;96903.19;4959552;28;20069;-63
2021/03/10 03:05:13;;;;;;;42.10;19.92;;;;;;;2.23;77.33;96900.75;4954616;28;20495;-63
2021/03/10 03:07:40;;;;;;;39.92;19.95;;;;;;;2.19;77.71;96898.94;4960130;28;20134;-63
2021/03/10 03:10:09;;;;;;;39.78;20.70;;;;;;;2.04;78.66;96897.41;4955114;28;20042;-60
2021/03/10 03:12:35;;;;;;;40.73;20.17;;;;;;;2.13;78.71;96886.69;4957829;28;20046;-61
2021/03/10 03:15:02;;;;;;;36.85;19.98;;;;;;;2.40;77.00;96894.63;4962385;28;20042;-62
2021/03/10 03:17:31;;;;;;;41.92;20.77;;;;;;;2.26;77.55;96904.72;4954133;28;20047;-63
2021/03/10 03:19:57;;;;;;;40.33;20.98;;;;;;;2.21;78.56;96905.63;4965193;28;20469;-63
2021/03/10 03:22:24;;;;;;;43.05;22.15;;;;;;;2.15;78.67;96903.38;4958222;28;20065;-63
2021/03/10 03:24:50;;;;;;;44.33;21.38;;;;;;;2.15;79.06;96903.38;4965658;28;20046;-63
2021/03/10 03:27:25;;;;;;;41.17;20.05;;;;;;;2.16;78.28;96903.06;4953828;28;20384;-63
2021/03/10 03:30:01;;;;;;;43.70;20.48;;;;;;;2.15;78.11;96900.69;4944761;29;20047;-63
2021/03/10 03:32:31;;;;;;;38.60;19.98;;;;;;;2.18;78.88;96921.66;4957835;28;20110;-62
2021/03/10 03:34:58;;;;;;;42.22;18.65;;;;;;;2.23;78.09;96924.25;4962501;28;20398;-63
2021/03/10 03:37:24;;;;;;;39.05;18.88;;;;;;;2.31;78.71;96925.44;4957695;28;20996;-64
2021/03/10 03:39:50;;;;;;;38.97;19.10;;;;;;;2.36;78.95;96928.81;4963945;28;20379;-64
2021/03/10 03:42:20;;;;;;;40.83;19.70;;;;;;;2.41;79.01;96936.81;4959945;28;20432;-63
2021/03/10 03:44:46;;;;;;;38.60;21.02;;;;;;;2.49;78.44;96932.56;4962316;28;20054;-63
2021/03/10 03:47:13;;;;;;;34.08;18.17;;;;;;;2.57;78.65;96934.50;4957650;28;20039;-64
2021/03/10 03:49:48;;;;;;;31.45;17.98;;;;;;;2.58;78.54;96936.09;4962342;28;20054;-63
2021/03/10 03:52:14;;;;;;;36.30;17.88;;;;;;;2.57;78.60;96936.41;4962540;28;20130;-64
2021/03/10 03:54:40;;;;;;;36.00;18.23;;;;;;;2.68;77.64;96940.44;4963244;28;20487;-63
2021/03/10 03:57:07;;;;;;;35.50;18.90;;;;;;;2.45;78.41;96940.47;4958418;28;20047;-63
2021/03/10 03:59:32;;;;;;;38.20;18.70;;;;;;;2.28;78.57;96943.06;4961602;28;20057;-61
2021/03/10 04:01:58;;;;;;;39.38;18.80;;;;;;;2.31;79.25;96952.47;4961346;28;20038;-62
2021/03/10 04:04:23;;;;;;;38.38;18.73;;;;;;;2.39;79.61;96954.41;4938273;28;21076;-62
2021/03/10 04:06:49;;;;;;;35.22;18.27;;;;;;;2.51;79.24;96954.66;4955211;28;20113;-63
2021/03/10 04:09:15;;;;;;;35.10;17.35;;;;;;;2.64;78.58;96967.31;4959659;28;20496;-62
2021/03/10 04:11:45;;;;;;;33.20;18.05;;;;;;;2.57;78.88;96968.84;4967975;28;20058;-62
2021/03/10 04:14:11;;;;;;;34.58;18.23;;;;;;;2.46;79.07;96962.91;4961275;28;20046;-63
2021/03/10 04:16:37;;;;;;;33.72;17.48;;;;;;;2.35;79.81;96969.66;4961798;28;20074;-62
2021/03/10 04:19:03;;;;;;;34.78;17.52;;;;;;;2.41;80.32;96963.00;4965381;28;20039;-63
2021/03/10 04:21:28;;;;;;;39.72;17.98;;;;;;;2.46;79.71;96965.59;4968802;28;20049;-63
2021/03/10 04:23:54;;;;;;;30.35;17.77;;;;;;;2.51;80.23;96962.00;4958644;28;20035;-63
2021/03/10 04:26:19;;;;;;;35.15;16.83;;;;;;;2.60;80.14;96971.75;4955268;28;20053;-62
2021/03/10 04:28:45;;;;;;;32.75;17.17;;;;;;;2.71;79.82;96971.50;4962963;28;20047;-60
2021/03/10 04:31:10;;;;;;;28.05;15.93;;;;;;;2.76;79.68;96964.06;4956366;28;20069;-63
2021/03/10 04:33:35;;;;;;;28.65;16.35;;;;;;;2.77;79.34;96968.34;4960818;28;20112;-64
2021/03/10 04:36:01;;;;;;;31.60;16.08;;;;;;;2.79;79.57;96966.16;4960617;28;20035;-62
2021/03/10 04:38:27;;;;;;;33.03;16.88;;;;;;;2.72;79.89;96964.97;4954506;28;20084;-62
2021/03/10 04:40:53;;;;;;;33.72;16.92;;;;;;;2.57;80.12;96972.34;4960763;28;20053;-63
2021/03/10 04:43:18;;;;;;;30.88;17.33;;;;;;;2.53;80.78;96965.97;4948193;28;20043;-63
2021/03/10 04:45:44;;;;;;;34.05;17.25;;;;;;;2.43;81.36;96971.63;4967208;28;20134;-62
2021/03/10 04:48:09;;;;;;;31.75;16.48;;;;;;;2.32;81.50;96978.38;4964524;28;20039;-62
2021/03/10 04:50:35;;;;;;;29.40;16.45;;;;;;;2.16;82.73;96991.44;4961620;28;20058;-63
2021/03/10 04:53:00;;;;;;;34.13;17.45;;;;;;;2.22;82.33;96990.22;4962509;28;20046;-63
2021/03/10 04:55:26;;;;;;;32.85;17.63;;;;;;;2.25;82.56;96989.59;4959907;28;20496;-61
2021/03/10 04:57:51;;;;;;;33.00;17.30;;;;;;;2.28;82.13;96981.69;4952100;28;20057;-62
2021/03/10 05:00:17;;;;;;;32.42;16.60;;;;;;;2.39;82.00;96974.13;4964635;28;20580;-63
2021/03/10 05:02:42;;;;;;;31.02;16.67;;;;;;;2.47;81.26;96968.00;4963833;28;20051;-62
2021/03/10 05:05:09;;;;;;;40.67;17.48;;;;;;;2.53;81.41;96970.59;4959548;28;20034;-62
2021/03/10 05:07:35;;;;;;;33.08;16.73;;;;;;;2.34;81.15;96978.88;4945908;28;20039;-62
2021/03/10 05:10:00;;;;;;;35.53;17.75;;;;;;;2.01;82.31;96979.06;4962127;28;20049;-63
2021/03/10 05:12:29;;;;;;;40.40;18.90;;;;;;;1.78;83.54;96986.31;4955760;28;20050;-63
2021/03/10 05:14:56;;;;;;;36.28;17.50;;;;;;;1.68;84.19;96993.53;4963792;28;20074;-61
2021/03/10 05:17:21;;;;;;;35.85;17.77;;;;;;;1.81;83.94;96988.41;4971701;28;20039;-62
2021/03/10 05:19:46;;;;;;;42.33;18.75;;;;;;;1.95;83.68;96991.09;4970153;28;20419;-62
2021/03/10 05:22:12;;;;;;;39.85;18.25;;;;;;;2.04;83.87;96973.06;4957384;28;20097;-61
2021/03/10 05:24:37;;;;;;;37.10;17.70;;;;;;;2.07;83.01;96980.53;4961957;28;20049;-63
2021/03/10 05:27:03;;;;;;;33.55;17.52;;;;;;;2.20;82.72;96987.03;4961668;28;20038;-61
2021/03/10 05:29:28;;;;;;;34.33;18.20;;;;;;;2.10;82.75;96988.84;4946031;28;20047;-61
2021/03/10 05:31:54;;;;;;;38.53;18.88;;;;;;;2.15;82.27;96998.75;4972853;28;20042;-61
2021/03/10 05:34:19;;;;;;;33.58;17.02;;;;;;;2.09;82.42;96992.66;4958518;28;20046;-60
2021/03/10 05:36:45;;;;;;;34.00;17.00;;;;;;;2.04;82.87;97000.88;4965902;28;20054;-63
2021/03/10 05:39:10;;;;;;;34.83;17.50;;;;;;;2.04;83.25;96998.19;4944136;28;20502;-62
2021/03/10 05:41:36;;;;;;;37.30;17.67;;;;;;;2.16;83.35;97000.34;4963302;28;20660;-62
2021/03/10 05:44:01;;;;;;;35.78;18.15;;;;;;;2.21;83.18;97008.31;4958871;28;20043;-62
2021/03/10 05:46:26;;;;;;;37.13;17.55;;;;;;;2.27;82.66;97009.81;4952603;28;20424;-63
2021/03/10 05:48:52;;;;;;;30.90;16.95;;;;;;;2.41;83.10;97014.38;4952747;28;20070;-63
2021/03/10 05:51:19;;;;;;;34.30;16.75;;;;;;;2.52;82.79;97012.25;4956425;28;20109;-63
2021/03/10 05:53:45;;;;;;;31.05;15.93;;;;;;;2.60;83.14;97019.63;4960178;28;20051;-63
2021/03/10 05:56:12;;;;;;;29.95;16.15;;;;;;;2.64;83.18;97015.19;4955743;28;20483;-61
2021/03/10 05:58:38;;;;;;;34.17;16.73;;;;;;;2.72;82.57;97017.19;4944194;28;20039;-62
2021/03/10 06:01:04;;;;;;;37.72;17.63;;;;;;;2.75;83.22;97021.16;4957659;28;20053;-62
2021/03/10 06:03:29;;;;;;;36.05;18.35;;;;;;;2.75;83.70;97015.75;4941956;28;20130;-62
2021/03/10 06:06:04;;;;;;;32.47;18.10;;;;;;;2.59;82.50;97013.44;4961182;28;20134;-63
2021/03/10 06:08:31;;;;;;;38.30;19.90;;;;;;;2.38;83.71;97015.81;4959455;28;20045;-63
2021/03/10 06:10:57;;;;;;;37.35;19.42;;;;;;;1.99;85.31;97017.19;4960021;28;20463;-63
2021/03/10 06:13:30;;;;;;;46.17;23.90;;;;;;;1.88;86.76;97018.53;4955761;28;20061;-62
2021/03/10 06:16:00;;;;;;;43.67;21.25;;;;;;;1.83;86.72;97019.41;4957827;28;20043;-63
2021/03/10 06:18:30;;;;;;;39.95;19.83;;;;;;;1.96;87.13;97014.28;4951075;28;20050;-63
2021/03/10 06:21:22;;;;;;;49.10;26.10;;;;;;;2.16;87.39;97021.16;4958980;28;20066;-63
2021/03/10 06:23:55;;;;;;;47.22;23.17;;;;;;;2.29;87.02;97029.25;4955454;28;20046;-63
2021/03/10 06:26:25;;;;;;;44.40;20.77;;;;;;;2.51;87.88;97032.28;4954156;28;20122;-61
2021/03/10 06:28:51;;;;;;;44.33;22.15;;;;;;;2.59;87.16;97028.84;4963357;28;20042;-61
2021/03/10 06:31:25;;;;;;;40.15;20.70;;;;;;;2.72;85.70;97032.59;4954114;28;20055;-63
2021/03/10 06:34:01;;;;;;;37.90;19.58;;;;;;;2.82;85.47;97046.66;4963755;28;20050;-62
2021/03/10 06:36:28;;;;;;;40.90;19.77;;;;;;;2.97;85.03;97050.09;4955934;28;20043;-62
2021/03/10 06:38:53;;;;;;;38.00;19.83;;;;;;;3.13;84.52;97055.94;4960736;28;20046;-61
2021/03/10 06:41:31;;;;;;;34.67;18.77;;;;;;;3.17;84.87;97062.31;4954653;28;20507;-60
2021/03/10 06:43:57;;;;;;;36.50;18.08;;;;;;;3.13;85.01;97055.94;4963688;28;20142;-61
2021/03/10 06:46:22;;;;;;;44.10;21.30;;;;;;;3.23;84.66;97058.41;4958471;28;20773;-62
2021/03/10 06:49:02;;;;;;;44.15;21.15;;;;;;;3.25;85.26;97059.69;4964662;28;20134;-61
2021/03/10 06:51:28;;;;;;;43.58;20.63;;;;;;;3.21;83.71;97068.75;4960642;28;20055;-61
2021/03/10 06:53:54;;;;;;;45.03;20.88;;;;;;;3.17;84.30;97065.84;4962737;28;20059;-61
2021/03/10 06:56:28;;;;;;;36.40;19.20;;;;;;;3.09;84.12;97065.78;4960234;28;20047;-62
2021/03/10 06:58:56;;;;;;;44.40;21.02;;;;;;;2.79;84.39;97065.41;4965008;28;20098;-63
2021/03/10 07:01:27;;;;;;;43.60;20.42;;;;;;;2.65;85.60;97066.28;4960433;28;20051;-63
2021/03/10 07:03:55;;;;;;;43.50;20.30;;;;;;;2.70;85.11;97069.97;4964548;28;20030;-61
2021/03/10 07:06:20;;;;;;;37.08;19.35;;;;;;;2.90;85.99;97083.03;4963328;28;20051;-61
2021/03/10 07:08:47;;;;;;;42.05;20.65;;;;;;;2.98;85.39;97078.78;4964890;28;20049;-63
2021/03/10 07:11:14;;;;;;;40.45;19.80;;;;;;;3.12;84.68;97079.50;4957885;28;20043;-64
2021/03/10 07:13:42;;;;;;;34.97;17.58;;;;;;;3.28;83.53;97076.41;4947077;28;20487;-59
2021/03/10 07:16:09;;;;;;;33.00;17.45;;;;;;;3.38;82.45;97078.84;4941500;28;20535;-64
2021/03/10 07:18:37;;;;;;;41.53;19.05;;;;;;;3.37;83.77;97088.09;4963361;28;20039;-61
2021/03/10 07:21:04;;;;;;;37.47;18.42;;;;;;;3.41;83.44;97086.38;4960775;28;20141;-63
2021/03/10 07:23:35;;;;;;;36.05;18.20;;;;;;;3.48;82.02;97081.31;4964447;28;20050;-59
2021/03/10 07:26:03;;;;;;;40.17;19.48;;;;;;;3.68;80.84;97077.25;4960164;28;20081;-63
2021/03/10 07:28:31;;;;;;;33.80;17.83;;;;;;;3.75;79.58;97082.22;4960819;28;20098;-64
2021/03/10 07:30:57;;;;;;;36.30;17.20;;;;;;;3.68;79.37;97082.69;4962928;28;20058;-59
2021/03/10 07:33:23;;;;;;;35.08;17.33;;;;;;;3.68;80.25;97098.13;4957556;28;20044;-59
2021/03/10 07:36:02;;;;;;;34.80;18.10;;;;;;;3.71;80.25;97097.50;4961590;28;20407;-61
2021/03/10 07:38:34;;;;;;;36.63;18.95;;;;;;;3.80;79.43;97093.72;4945602;28;20043;-64
2021/03/10 07:41:04;;;;;;;44.25;17.55;;;;;;;3.91;79.78;97099.66;4968581;28;20038;-61
2021/03/10 07:43:33;;;;;;;38.03;20.20;;;;;;;3.91;80.42;97102.38;4963447;28;20120;-58
2021/03/10 07:45:59;;;;;;;37.47;20.40;;;;;;;3.68;80.61;97106.25;4949034;28;20039;-64
2021/03/10 07:48:34;;;;;;;57.75;24.45;;;;;;;3.21;82.56;97104.72;4958271;28;20301;-61
2021/03/10 07:50:59;;;;;;;47.15;25.00;;;;;;;3.25;82.34;97108.41;4963714;28;20158;-58
2021/03/10 07:53:38;;;;;;;46.05;23.88;;;;;;;3.42;82.17;97106.91;4957038;28;20051;-61
2021/03/10 07:56:04;;;;;;;42.78;21.17;;;;;;;3.66;82.97;97105.78;4967267;28;20074;-67
2021/03/10 07:58:31;;;;;;;46.33;21.00;;;;;;;3.97;81.96;97100.31;4979044;28;20062;-61
2021/03/10 08:00:57;;;;;;;39.38;19.10;;;;;;;4.26;78.96;97105.19;4973903;28;20035;-63
2021/03/10 08:03:33;;;;;;;36.75;18.42;;;;;;;4.38;77.84;97105.38;4958528;28;21004;-62
2021/03/10 08:06:07;;;;;;;40.13;20.33;;;;;;;4.06;78.82;97108.50;4960885;28;20050;-62
2021/03/10 08:08:37;;;;;;;45.13;21.75;;;;;;;4.20;79.43;97109.16;4961553;28;20043;-62
2021/03/10 08:11:17;;;;;;;39.58;19.58;;;;;;;4.49;78.19;97097.72;4960136;28;20052;-66
2021/03/10 08:13:43;;;;;;;;;;;;;;;4.66;76.47;97104.28;4958995;28;20058;-61
2021/03/10 08:16:11;;;;;;;35.30;17.90;;;;;;;4.96;76.28;97105.25;4956464;28;19922;-62
2021/03/10 08:18:39;;;;;;;36.10;18.25;;;;;;;5.92;72.89;97105.06;4962533;28;20149;-59
2021/03/10 08:21:07;;;;;;;38.60;20.13;;;;;;;6.20;71.04;97102.72;4965632;28;20058;-64
2021/03/10 08:23:33;;;;;;;23.38;13.40;;;;;;;6.49;68.20;97101.91;4962246;28;20137;-61
2021/03/10 08:25:59;;;;;;;36.10;18.88;;;;;;;6.50;68.22;97110.88;4962299;28;20057;-59
2021/03/10 08:28:31;;;;;;;32.05;16.40;;;;;;;7.37;65.10;97112.13;4963869;28;20047;-61
2021/03/10 08:31:01;;;;;;;45.80;22.90;;;;;;;7.49;64.03;97114.91;4962299;28;20389;-61
2021/03/10 08:33:26;;;;;;;32.60;17.23;;;;;;;7.91;61.34;97117.47;4957874;28;20085;-61
2021/03/10 08:35:52;;;;;;;30.67;15.93;;;;;;;8.33;60.64;97108.28;4963925;28;20043;-63
2021/03/10 08:38:18;;;;;;;32.58;17.23;;;;;;;8.28;60.23;97113.97;4957322;28;20105;-65
2021/03/10 08:40:43;;;;;;;30.85;16.58;;;;;;;8.43;59.77;97113.34;4962676;28;20415;-64
2021/03/10 08:43:16;;;;;;;34.38;17.73;;;;;;;8.04;61.47;97119.06;4955117;28;20047;-62
2021/03/10 08:45:42;;;;;;;30.92;17.20;;;;;;;8.45;60.77;97113.78;4965637;28;20051;-62
2021/03/10 08:48:10;;;;;;;28.55;15.38;;;;;;;8.98;57.82;97109.13;4969631;28;20042;-62
2021/03/10 08:50:38;;;;;;;30.45;15.75;;;;;;;8.85;58.91;97120.44;4963775;28;20055;-61
2021/03/10 08:53:05;;;;;;;32.65;17.35;;;;;;;9.11;59.66;97109.06;4957711;28;20067;-66
2021/03/10 08:55:30;;;;;;;32.35;15.77;;;;;;;9.16;58.11;97100.63;4943103;28;20043;-64
2021/03/10 08:57:59;;;;;;;35.50;15.65;;;;;;;8.08;58.57;97116.47;4962031;28;20488;-61
2021/03/10 09:00:27;;;;;;;29.50;15.98;;;;;;;8.45;59.79;97111.03;4941685;28;20054;-61
2021/03/10 09:02:53;;;;;;;29.65;15.13;;;;;;;8.19;58.98;97123.09;4962970;28;20064;-64
2021/03/10 09:05:29;;;;;;;28.67;15.30;;;;;;;8.58;57.41;97117.28;4941196;28;20463;-61
2021/03/10 09:07:56;;;;;;;27.95;15.00;;;;;;;8.70;56.69;97119.22;4962816;28;20368;-61
2021/03/10 09:10:22;;;;;;;33.20;16.70;;;;;;;8.37;59.48;97112.75;4957048;28;20456;-60
2021/03/10 09:12:52;;;;;;;26.85;15.07;;;;;;;8.65;57.70;97112.03;4960909;28;20121;-59
2021/03/10 09:15:20;;;;;;;35.83;15.52;;;;;;;8.34;57.07;97107.16;4956649;28;20047;-60
2021/03/10 09:17:46;;;;;;;29.13;15.77;;;;;;;8.09;58.31;97098.19;4962692;28;20053;-59
2021/03/10 09:20:21;;;;;;;33.42;16.25;;;;;;;7.84;59.47;97107.13;4956665;28;20038;-64
2021/03/10 09:22:47;;;;;;;36.05;17.02;;;;;;;8.04;60.32;97113.63;4966393;28;20042;-64
2021/03/10 09:25:15;;;;;;;32.90;17.60;;;;;;;8.95;58.96;97098.09;4963119;28;20098;-63
2021/03/10 09:27:41;;;;;;;30.73;16.23;;;;;;;8.10;59.99;97105.22;4961015;28;20137;-62
2021/03/10 09:30:26;;;;;;;27.63;15.38;;;;;;;8.19;60.17;97098.53;4953660;28;20137;-66
2021/03/10 09:32:52;;;;;;;34.90;16.95;;;;;;;8.41;60.11;97108.19;4945469;28;20047;-62
2021/03/10 09:35:18;;;;;;;29.38;15.77;;;;;;;9.52;55.30;97093.41;4957470;28;20514;-63
2021/03/10 09:37:55;;;;;;;37.63;16.85;;;;;;;9.58;55.33;97100.25;4963214;28;20038;-62
2021/03/10 09:40:35;;;;;;;38.17;17.00;;;;;;;9.68;53.83;97096.97;4956079;28;20047;-61
2021/03/10 09:43:03;;;;;;;37.22;17.08;;;;;;;9.72;51.68;97097.06;4960406;28;20511;-64
2021/03/10 09:45:31;;;;;;;39.92;16.58;;;;;;;9.77;53.49;97091.34;4958944;28;20055;-62
2021/03/10 09:47:57;;;;;;;32.13;16.02;;;;;;;9.99;52.28;97084.47;4943714;28;20109;-60
2021/03/10 09:50:24;;;;;;;34.13;17.08;;;;;;;10.75;49.21;97083.50;4956631;28;20642;-63
2021/03/10 09:52:50;;;;;;;28.35;16.05;;;;;;;11.01;49.32;97082.88;4962025;28;20050;-65
2021/03/10 09:55:20;;;;;;;32.80;15.50;;;;;;;10.92;49.73;97090.53;4941029;28;20046;-63
2021/03/10 09:57:45;;;;;;;29.48;15.45;;;;;;;11.78;45.97;97087.50;4960741;28;20043;-64
2021/03/10 10:00:20;;;;;;;25.08;14.80;;;;;;;12.06;45.12;97091.91;4959439;28;20038;-62
2021/03/10 10:02:47;;;;;;;30.58;15.75;;;;;;;11.79;46.01;97086.34;4959336;28;20048;-62
2021/03/10 10:05:27;;;;;;;28.50;15.80;;;;;;;11.88;44.95;97088.84;4955476;28;20043;-63
2021/03/10 10:07:53;;;;;;;;;;;;;;;12.52;43.08;97080.88;4961559;28;20054;-63
2021/03/10 10:10:19;;;;;;;32.60;15.73;;;;;;;12.53;44.74;97082.47;4954855;28;19945;-61
2021/03/10 10:12:49;;;;;;;26.90;15.18;;;;;;;13.16;41.54;97080.16;4961304;28;20496;-64
2021/03/10 10:15:18;;;;;;;29.92;15.68;;;;;;;12.26;44.70;97078.09;4956182;28;20055;-62
2021/03/10 10:17:49;;;;;;;23.17;13.32;;;;;;;12.09;44.35;97082.16;4962488;28;20070;-59
2021/03/10 10:20:17;;;;;;;25.63;13.77;;;;;;;12.34;42.35;97068.84;4955475;28;20070;-64
2021/03/10 10:22:44;;;;;;;22.20;12.48;;;;;;;12.38;42.32;97072.41;4960653;28;20057;-65
2021/03/10 10:25:12;;;;;;;26.10;15.20;;;;;;;11.88;42.66;97069.63;4940540;28;20070;-62
2021/03/10 10:27:37;;;;;;;27.45;14.52;;;;;;;11.41;44.84;97063.28;4960689;28;20050;-60
2021/03/10 10:30:04;;;;;;;27.92;15.15;;;;;;;12.76;45.53;97060.41;4959018;28;20093;-66
2021/03/10 10:32:29;;;;;;;24.45;14.70;;;;;;;13.54;41.53;97065.31;4960462;28;20081;-63
2021/03/10 10:34:55;;;;;;;23.55;13.45;;;;;;;12.54;40.74;97062.06;4962867;28;20078;-62
2021/03/10 10:37:20;;;;;;;29.02;15.15;;;;;;;13.14;42.49;97064.03;4956439;28;20047;-62
2021/03/10 10:39:46;;;;;;;29.48;15.32;;;;;;;12.96;43.31;97065.75;4963313;28;20111;-62
2021/03/10 10:42:11;;;;;;;31.27;16.23;;;;;;;12.73;45.48;97063.91;4974592;28;20046;-65
2021/03/10 10:44:37;;;;;;;28.17;14.50;;;;;;;11.99;44.60;97067.09;4975637;28;20043;-61
2021/03/10 10:47:03;;;;;;;30.63;16.73;;;;;;;11.54;45.30;97060.41;4956840;28;20496;-66
2021/03/10 10:49:29;;;;;;;27.13;15.25;;;;;;;12.52;44.71;97061.66;4957800;28;20051;-60
2021/03/10 10:51:54;;;;;;;29.73;16.65;;;;;;;13.06;43.54;97053.31;4969212;28;20047;-59
2021/03/10 10:54:20;;;;;;;31.52;15.77;;;;;;;11.86;43.53;97060.97;4956356;28;20126;-62
2021/03/10 10:56:46;;;;;;;26.58;15.32;;;;;;;11.50;45.21;97048.56;4961627;28;20043;-60
2021/03/10 10:59:12;;;;;;;28.25;15.38;;;;;;;11.28;44.46;97048.97;4937886;28;20121;-60
2021/03/10 11:01:37;;;;;;;25.60;11.40;;;;;;;11.32;44.63;97049.03;4958653;28;20121;-65
2021/03/10 11:04:03;;;;;;;31.10;15.00;;;;;;;11.66;45.27;97043.75;4957074;28;20110;-66
2021/03/10 11:06:28;;;;;;;29.20;15.48;;;;;;;11.81;45.44;97042.06;4958476;28;20448;-58
2021/03/10 11:08:54;;;;;;;33.80;16.33;;;;;;;11.76;46.61;97031.41;4960556;28;20042;-64
2021/03/10 11:11:19;;;;;;;29.10;15.77;;;;;;;11.38;46.21;97036.63;4936831;28;20070;-56
2021/03/10 11:13:44;;;;;;;29.65;15.60;;;;;;;12.09;45.36;97040.97;4962230;28;20042;-58
2021/03/10 11:16:10;;;;;;;25.48;14.60;;;;;;;11.50;45.75;97035.63;4952971;28;20046;-62
2021/03/10 11:18:35;;;;;;;30.10;15.63;;;;;;;11.25;46.63;97024.22;4952551;28;20460;-55
2021/03/10 11:21:01;;;;;;;27.77;15.93;;;;;;;11.23;45.82;97024.56;4959849;28;20070;-59
2021/03/10 11:23:26;;;;;;;31.70;16.13;;;;;;;11.19;45.30;97029.19;4954532;28;20392;-61
2021/03/10 11:25:52;;;;;;;25.48;13.25;;;;;;;11.28;44.52;97035.25;4943589;28;20042;-59
2021/03/10 11:28:17;;;;;;;29.58;15.00;;;;;;;11.04;44.90;97025.41;4955542;28;20070;-59